createdAt,value
2018-12-09T00:01:22.336Z,99.90
2018-12-09T00:03:56.843Z,99.90
2018-12-09T00:06:31.575Z,99.90
2018-12-09T00:09:06.468Z,99.90
2018-12-09T00:11:41.062Z,99.90
2018-12-09T00:14:15.896Z,99.90
2018-12-09T00:16:50.844Z,99.90
2018-12-09T00:19:25.382Z,99.90
2018-12-09T00:22:00.185Z,99.90
2018-12-09T00:24:35.002Z,99.90
2018-12-09T00:27:09.495Z,99.90
2018-12-09T00:29:44.344Z,99.90
2018-12-09T00:32:18.990Z,99.90
2018-12-09T00:34:53.715Z,99.90
2018-12-09T00:37:28.436Z,99.90
2018-12-09T00:40:03.935Z,99.90
2018-12-09T00:42:43.337Z,99.90
2018-12-09T00:45:15.698Z,99.90
2018-12-09T00:47:50.558Z,99.90
2018-12-09T00:50:25.303Z,99.90
2018-12-09T00:52:59.851Z,99.90
2018-12-09T00:55:34.477Z,99.40
2018-12-09T00:58:09.113Z,96.20
2018-12-09T01:00:43.841Z,95.20
2018-12-09T01:03:18.348Z,94.50
2018-12-09T01:05:53.061Z,93.60
2018-12-09T01:08:27.716Z,93.10
2018-12-09T01:11:02.369Z,92.80
2018-12-09T01:13:37.085Z,93.30
2018-12-09T01:16:11.694Z,92.50
2018-12-09T01:18:46.482Z,92.60
2018-12-09T01:21:21.105Z,91.50
2018-12-09T01:23:56.013Z,91.60
2018-12-09T01:26:30.784Z,93.20
2018-12-09T01:29:05.388Z,91.10
2018-12-09T01:31:40.300Z,90.10
2018-12-09T01:34:15.198Z,91.70
2018-12-09T01:36:49.782Z,91.50
2018-12-09T01:39:24.664Z,93.30
2018-12-09T01:41:59.388Z,92.90
2018-12-09T01:44:34.250Z,92.40
2018-12-09T01:47:08.949Z,93.60
2018-12-09T01:49:43.549Z,92.60
2018-12-09T01:52:18.299Z,92.80
2018-12-09T01:54:52.919Z,93.90
2018-12-09T01:57:27.601Z,93.40
2018-12-09T02:00:02.386Z,95.10
2018-12-09T02:02:37.000Z,95.90
2018-12-09T02:05:11.719Z,96.50
2018-12-09T02:07:46.403Z,97.30
2018-12-09T02:10:21.222Z,98.40
2018-12-09T02:12:55.880Z,99.90
2018-12-09T02:15:31.656Z,99.90
2018-12-09T02:18:06.292Z,99.90
2018-12-09T02:20:41.105Z,99.90
2018-12-09T02:23:15.854Z,99.90
2018-12-09T02:25:51.140Z,99.90
2018-12-09T02:28:26.343Z,99.90
2018-12-09T02:31:01.162Z,99.90
2018-12-09T02:33:35.779Z,99.90
2018-12-09T02:36:11.283Z,99.90
2018-12-09T02:38:46.098Z,99.90
2018-12-09T02:41:20.822Z,99.90
2018-12-09T02:43:55.834Z,99.90
2018-12-09T02:46:30.388Z,99.90
2018-12-09T02:49:05.226Z,99.30
2018-12-09T02:51:39.753Z,98.90
2018-12-09T02:54:14.379Z,96.20
2018-12-09T02:56:49.637Z,93.80
2018-12-09T02:59:23.995Z,88.90
2018-12-09T03:01:58.628Z,83.40
2018-12-09T03:04:33.418Z,80.10
2018-12-09T03:07:08.013Z,73.10
2018-12-09T03:09:42.596Z,68.60
2018-12-09T03:12:17.264Z,66.80
2018-12-09T03:14:51.769Z,65.90
2018-12-09T03:17:26.553Z,65.70
2018-12-09T03:20:01.185Z,66.00
2018-12-09T03:22:35.844Z,66.30
2018-12-09T03:25:10.567Z,65.80
2018-12-09T03:27:45.147Z,65.90
2018-12-09T03:30:19.833Z,65.80
2018-12-09T03:32:54.540Z,64.90
2018-12-09T03:35:29.247Z,65.30
2018-12-09T03:38:03.874Z,65.00
2018-12-09T03:40:38.622Z,64.30
2018-12-09T03:43:13.495Z,64.70
2018-12-09T03:45:49.049Z,64.30
2018-12-09T03:48:23.896Z,65.70
2018-12-09T03:50:58.661Z,66.30
2018-12-09T03:53:33.526Z,68.40
2018-12-09T03:56:08.411Z,68.30
2018-12-09T03:58:43.117Z,69.50
2018-12-09T04:01:17.765Z,70.90
2018-12-09T04:03:52.782Z,71.90
2018-12-09T04:06:28.246Z,73.00
2018-12-09T04:09:03.584Z,73.80
2018-12-09T04:11:38.706Z,74.40
2018-12-09T04:14:13.350Z,75.90
2018-12-09T04:16:48.156Z,77.10
2018-12-09T04:19:23.757Z,78.00
2018-12-09T04:21:58.294Z,78.00
2018-12-09T04:24:33.193Z,77.60
2018-12-09T04:27:07.997Z,78.00
2018-12-09T04:29:42.654Z,77.70
2018-12-09T04:32:17.441Z,78.30
2018-12-09T04:34:52.223Z,79.60
2018-12-09T04:37:26.873Z,81.00
2018-12-09T04:40:01.682Z,82.80
2018-12-09T04:42:36.387Z,84.00
2018-12-09T04:45:11.037Z,84.40
2018-12-09T04:47:45.867Z,85.10
2018-12-09T04:50:20.469Z,85.70
2018-12-09T04:52:55.312Z,84.90
2018-12-09T04:55:30.033Z,83.00
2018-12-09T04:58:04.777Z,82.30
2018-12-09T05:00:53.765Z,81.00
2018-12-09T05:03:29.241Z,79.20
2018-12-09T05:06:04.011Z,78.10
2018-12-09T05:08:38.591Z,79.10
2018-12-09T05:11:13.409Z,77.50
2018-12-09T05:13:48.121Z,77.90
2018-12-09T05:16:22.785Z,78.10
2018-12-09T05:18:57.644Z,79.00
2018-12-09T05:21:32.364Z,78.90
2018-12-09T05:24:07.084Z,78.90
2018-12-09T05:26:41.901Z,78.10
2018-12-09T05:29:16.545Z,78.10
2018-12-09T05:31:51.048Z,77.40
2018-12-09T05:34:25.684Z,76.60
2018-12-09T05:37:00.287Z,76.20
2018-12-09T05:39:34.950Z,75.70
2018-12-09T05:42:10.566Z,73.70
2018-12-09T05:44:45.356Z,73.60
2018-12-09T05:47:20.067Z,72.20
2018-12-09T05:49:54.972Z,72.80
2018-12-09T05:52:29.620Z,72.60
2018-12-09T05:55:05.710Z,72.30
2018-12-09T05:57:40.027Z,73.10
2018-12-09T06:00:14.711Z,73.10
2018-12-09T06:02:54.558Z,73.00
2018-12-09T06:05:29.061Z,74.00
2018-12-09T06:08:04.056Z,73.50
2018-12-09T06:10:38.661Z,74.20
2018-12-09T06:13:13.496Z,74.00
2018-12-09T06:15:49.267Z,76.20
2018-12-09T06:18:23.916Z,77.50
2018-12-09T06:20:58.652Z,77.60
2018-12-09T06:23:33.443Z,77.50
2018-12-09T06:26:08.139Z,78.70
2018-12-09T06:28:42.755Z,80.50
2018-12-09T06:31:17.625Z,82.10
2018-12-09T06:33:52.450Z,82.50
2018-12-09T06:36:27.285Z,81.30
2018-12-09T06:39:02.079Z,80.80
2018-12-09T06:41:36.765Z,81.00
2018-12-09T06:44:11.587Z,79.40
2018-12-09T06:46:46.209Z,79.10
2018-12-09T06:49:20.921Z,79.80
2018-12-09T06:51:55.584Z,79.30
2018-12-09T06:54:30.476Z,78.30
2018-12-09T06:57:05.131Z,78.30
2018-12-09T06:59:39.898Z,77.50
2018-12-09T07:02:14.680Z,77.30
2018-12-09T07:04:49.319Z,78.40
2018-12-09T07:07:24.096Z,78.50
2018-12-09T07:09:58.797Z,77.50
2018-12-09T07:12:33.530Z,78.00
2018-12-09T07:15:08.265Z,77.50
2018-12-09T07:17:43.012Z,76.70
2018-12-09T07:20:17.765Z,78.30
2018-12-09T07:22:52.418Z,78.00
2018-12-09T07:25:27.237Z,77.00
2018-12-09T07:28:01.649Z,78.90
2018-12-09T07:30:36.494Z,78.00
2018-12-09T07:33:11.085Z,77.10
2018-12-09T07:35:45.686Z,77.10
2018-12-09T07:38:20.365Z,77.20
2018-12-09T07:40:55.249Z,79.40
2018-12-09T07:43:30.060Z,79.70
2018-12-09T07:46:04.764Z,81.40
2018-12-09T07:48:39.334Z,82.70
2018-12-09T07:51:14.049Z,82.70
2018-12-09T07:53:48.720Z,84.40
2018-12-09T07:56:23.440Z,84.90
2018-12-09T07:58:58.230Z,83.10
2018-12-09T08:01:32.911Z,83.20
2018-12-09T08:04:07.519Z,82.10
2018-12-09T08:06:42.397Z,81.60
2018-12-09T08:09:19.258Z,79.40
2018-12-09T08:11:54.250Z,77.80
2018-12-09T08:14:28.905Z,77.60
2018-12-09T08:17:03.832Z,77.40
2018-12-09T08:19:38.525Z,76.10
2018-12-09T08:22:13.130Z,76.20
2018-12-09T08:24:47.809Z,75.00
2018-12-09T08:27:22.687Z,74.10
2018-12-09T08:29:58.277Z,73.30
2018-12-09T08:32:33.114Z,72.70
2018-12-09T08:35:07.852Z,73.00
2018-12-09T08:37:42.599Z,72.70
2018-12-09T08:40:17.383Z,72.20
2018-12-09T08:42:52.177Z,71.80
2018-12-09T08:45:27.020Z,72.60
2018-12-09T08:48:01.772Z,72.40
2018-12-09T08:50:36.562Z,72.00
2018-12-09T08:53:11.325Z,71.60
2018-12-09T08:55:46.046Z,72.00
2018-12-09T08:58:20.768Z,72.40
2018-12-09T09:00:55.620Z,72.00
2018-12-09T09:03:30.334Z,71.40
2018-12-09T09:06:05.094Z,70.80
2018-12-09T09:08:39.675Z,71.00
2018-12-09T09:11:14.446Z,72.30
2018-12-09T09:13:49.210Z,72.50
2018-12-09T09:16:23.949Z,72.10
2018-12-09T09:18:58.518Z,71.80
2018-12-09T09:21:33.242Z,73.10
2018-12-09T09:24:07.945Z,74.00
2018-12-09T09:26:42.772Z,73.90
2018-12-09T09:29:17.763Z,73.80
2018-12-09T09:31:52.522Z,74.30
2018-12-09T09:34:27.257Z,75.10
2018-12-09T09:37:02.033Z,77.50
2018-12-09T09:39:36.896Z,79.50
2018-12-09T09:42:11.699Z,79.00
2018-12-09T09:44:46.202Z,80.30
2018-12-09T09:47:21.013Z,79.00
2018-12-09T09:49:55.691Z,78.90
2018-12-09T09:52:30.376Z,76.40
2018-12-09T09:55:05.756Z,76.60
2018-12-09T09:57:40.629Z,76.50
2018-12-09T10:00:15.421Z,76.00
2018-12-09T10:02:50.191Z,75.20
2018-12-09T10:05:25.183Z,76.30
2018-12-09T10:08:00.104Z,76.10
2018-12-09T10:10:34.876Z,75.20
2018-12-09T10:13:09.538Z,74.40
2018-12-09T10:15:46.090Z,74.00
2018-12-09T10:18:20.936Z,72.90
2018-12-09T10:20:55.686Z,72.90
2018-12-09T10:23:30.395Z,71.40
2018-12-09T10:26:05.183Z,71.80
2018-12-09T10:28:39.857Z,71.60
2018-12-09T10:31:14.319Z,70.60
2018-12-09T10:33:49.614Z,70.30
2018-12-09T10:36:24.744Z,70.20
2018-12-09T10:38:59.338Z,69.10
2018-12-09T10:41:34.032Z,69.10
2018-12-09T10:44:08.703Z,69.50
2018-12-09T10:46:43.521Z,69.50
2018-12-09T10:49:18.012Z,69.30
2018-12-09T10:51:52.752Z,69.10
2018-12-09T10:54:27.351Z,70.10
2018-12-09T10:57:01.940Z,70.10
2018-12-09T10:59:30.875Z,69.50
2018-12-09T11:02:05.172Z,69.10
2018-12-09T11:04:34.140Z,69.10
2018-12-09T11:07:05.082Z,68.50
2018-12-09T11:09:34.062Z,69.00
2018-12-09T11:12:03.065Z,68.90
2018-12-09T11:14:31.993Z,68.10
2018-12-09T11:17:01.892Z,69.60
2018-12-09T11:19:30.812Z,68.60
2018-12-09T11:21:59.804Z,69.40
2018-12-09T11:24:28.748Z,70.30
2018-12-09T11:26:57.694Z,71.60
2018-12-09T11:29:26.654Z,71.80
2018-12-09T11:31:55.576Z,72.30
2018-12-09T11:34:24.554Z,73.80
2018-12-09T11:36:53.553Z,74.40
2018-12-09T11:39:22.499Z,75.00
2018-12-09T11:41:51.417Z,76.00
2018-12-09T11:44:23.601Z,75.70
2018-12-09T11:46:52.570Z,76.50
2018-12-09T11:49:21.488Z,76.90
2018-12-09T11:51:50.473Z,76.00
2018-12-09T11:54:19.500Z,77.10
2018-12-09T11:56:48.510Z,78.30
2018-12-09T11:59:17.560Z,78.60
2018-12-09T12:01:46.582Z,79.30
2018-12-09T12:04:15.520Z,81.40
2018-12-09T12:06:44.509Z,84.10
2018-12-09T12:09:13.466Z,87.00
2018-12-09T12:11:42.496Z,89.30
2018-12-09T12:14:11.433Z,90.10
2018-12-09T12:16:40.371Z,92.10
2018-12-09T12:19:09.310Z,91.60
2018-12-09T12:21:38.238Z,95.90
2018-12-09T12:24:07.189Z,97.90
2018-12-09T12:26:36.239Z,98.50
2018-12-09T12:29:05.212Z,98.80
2018-12-09T12:31:34.147Z,99.90
2018-12-09T12:34:03.081Z,98.60
2018-12-09T12:36:32.071Z,97.40
2018-12-09T12:39:00.991Z,99.90
2018-12-09T12:41:31.987Z,99.90
2018-12-09T12:44:01.120Z,99.90
2018-12-09T12:46:30.104Z,99.90
2018-12-09T12:48:59.047Z,99.90
2018-12-09T12:51:28.006Z,99.90
2018-12-09T12:53:57.006Z,99.90
2018-12-09T12:56:25.952Z,99.90
2018-12-09T12:58:54.900Z,99.90
2018-12-09T13:01:23.849Z,99.90
2018-12-09T13:03:52.905Z,99.90
2018-12-09T13:06:22.284Z,99.90
2018-12-09T13:08:51.228Z,99.90
2018-12-09T13:11:20.137Z,99.90
2018-12-09T13:13:49.077Z,99.90
2018-12-09T13:16:18.019Z,99.90
2018-12-09T13:18:47.055Z,99.90
2018-12-09T13:21:16.104Z,99.90
2018-12-09T13:23:45.040Z,99.90
2018-12-09T13:26:14.012Z,99.90
2018-12-09T13:28:42.984Z,99.90
2018-12-09T13:31:11.900Z,99.90
2018-12-09T13:33:40.918Z,99.90
2018-12-09T13:36:09.853Z,99.90
2018-12-09T13:38:38.832Z,99.90
2018-12-09T13:41:07.816Z,99.90
2018-12-09T13:43:36.809Z,99.90
2018-12-09T13:46:05.998Z,99.00
2018-12-09T13:48:35.299Z,99.90
2018-12-09T13:51:04.277Z,99.90
2018-12-09T13:53:33.266Z,99.90
2018-12-09T13:56:02.212Z,99.90
2018-12-09T13:58:31.142Z,99.90
2018-12-09T14:01:00.225Z,99.90
2018-12-09T14:03:31.186Z,99.90
2018-12-09T14:06:00.173Z,99.90
2018-12-09T14:08:29.166Z,99.90
2018-12-09T14:10:58.089Z,99.90
2018-12-09T14:13:27.037Z,99.90
2018-12-09T14:15:55.976Z,99.90
2018-12-09T14:18:24.920Z,99.90
2018-12-09T14:20:54.831Z,99.30
2018-12-09T14:23:23.778Z,99.90
2018-12-09T14:25:52.821Z,98.60
2018-12-09T14:28:21.777Z,98.50
2018-12-09T14:30:50.735Z,99.60
2018-12-09T14:33:19.674Z,98.30
2018-12-09T14:35:48.632Z,96.50
2018-12-09T14:38:17.976Z,97.90
2018-12-09T14:40:46.884Z,96.20
2018-12-09T14:43:15.841Z,94.80
2018-12-09T14:45:48.988Z,94.60
2018-12-09T14:48:15.744Z,97.30
2018-12-09T14:50:44.661Z,97.70
2018-12-09T14:53:13.625Z,96.60
2018-12-09T14:55:42.626Z,95.20
2018-12-09T14:58:11.607Z,94.70
2018-12-09T15:00:40.571Z,95.60
2018-12-09T15:03:09.595Z,94.80
2018-12-09T15:05:38.537Z,94.90
2018-12-09T15:08:08.509Z,94.80
2018-12-09T15:10:37.430Z,94.50
2018-12-09T15:13:06.386Z,94.80
2018-12-09T15:15:35.361Z,95.60
2018-12-09T15:18:04.548Z,95.40
2018-12-09T15:20:33.505Z,95.80
2018-12-09T15:23:02.447Z,94.50
2018-12-09T15:25:31.388Z,94.20
2018-12-09T15:28:00.311Z,96.30
2018-12-09T15:30:29.260Z,98.30
2018-12-09T15:32:58.231Z,98.10
2018-12-09T15:35:27.181Z,99.90
2018-12-09T15:37:56.110Z,99.90
2018-12-09T15:40:25.067Z,99.90
2018-12-09T15:42:53.988Z,99.90
2018-12-09T15:45:22.956Z,99.90
2018-12-09T15:47:51.924Z,99.90
2018-12-09T15:50:20.878Z,99.90
2018-12-09T15:52:49.827Z,99.90
2018-12-09T15:55:18.821Z,99.90
2018-12-09T15:57:47.746Z,99.90
2018-12-09T16:00:16.729Z,99.90
2018-12-09T16:02:45.653Z,99.90
2018-12-09T16:05:14.628Z,99.90
2018-12-09T16:07:44.589Z,99.90
2018-12-09T16:10:13.550Z,99.70
2018-12-09T16:12:42.505Z,97.70
2018-12-09T16:15:11.537Z,97.80
2018-12-09T16:17:40.496Z,98.20
2018-12-09T16:20:09.503Z,98.80
2018-12-09T16:22:38.471Z,99.10
2018-12-09T16:25:07.432Z,99.10
2018-12-09T16:27:36.346Z,99.00
2018-12-09T16:30:06.512Z,98.70
2018-12-09T16:32:35.598Z,97.60
2018-12-09T16:35:06.352Z,89.20
2018-12-09T16:37:35.287Z,90.90
2018-12-09T16:40:05.053Z,91.50
2018-12-09T16:42:34.024Z,93.20
2018-12-09T16:45:02.980Z,93.00
2018-12-09T16:47:31.980Z,91.80
2018-12-09T16:50:00.947Z,92.00
2018-12-09T16:52:29.885Z,92.70
2018-12-09T16:54:58.854Z,93.40
2018-12-09T16:57:27.816Z,91.00
2018-12-09T16:59:56.763Z,92.90
2018-12-09T17:02:25.688Z,91.00
2018-12-09T17:04:54.654Z,88.90
2018-12-09T17:07:23.576Z,88.60
2018-12-09T17:09:52.553Z,91.80
2018-12-09T17:12:21.529Z,89.80
2018-12-09T17:14:50.518Z,89.30
2018-12-09T17:17:19.458Z,89.90
2018-12-09T17:19:48.408Z,90.20
2018-12-09T17:22:17.327Z,89.50
2018-12-09T17:24:46.291Z,89.30
2018-12-09T17:27:15.210Z,89.70
2018-12-09T17:29:44.186Z,89.70
2018-12-09T17:32:13.146Z,90.00
2018-12-09T17:34:42.099Z,89.40
2018-12-09T17:37:11.026Z,90.40
2018-12-09T17:39:40.479Z,92.30
2018-12-09T17:42:09.481Z,92.40
2018-12-09T17:44:38.465Z,93.20
2018-12-09T17:47:07.429Z,92.80
2018-12-09T17:49:36.363Z,94.60
2018-12-09T17:52:05.329Z,95.90
2018-12-09T17:54:34.289Z,97.70
2018-12-09T17:57:03.513Z,95.80
2018-12-09T17:59:32.481Z,94.70
2018-12-09T18:02:02.561Z,95.40
2018-12-09T18:04:31.484Z,96.50
2018-12-09T18:07:00.450Z,96.20
2018-12-09T18:09:29.404Z,96.00
2018-12-09T18:11:59.319Z,96.40
2018-12-09T18:14:28.310Z,97.50
2018-12-09T18:16:57.285Z,97.70
2018-12-09T18:19:26.198Z,97.40
2018-12-09T18:21:55.153Z,94.90
2018-12-09T18:24:24.166Z,97.40
2018-12-09T18:26:53.111Z,97.60
2018-12-09T18:29:22.077Z,96.80
2018-12-09T18:31:51.311Z,97.40
2018-12-09T18:34:20.291Z,97.00
2018-12-09T18:36:49.385Z,94.40
2018-12-09T18:39:18.276Z,91.30
2018-12-09T18:41:47.247Z,90.40
2018-12-09T18:44:16.258Z,90.80
2018-12-09T18:46:45.228Z,91.90
2018-12-09T18:49:14.195Z,92.30
2018-12-09T18:51:43.121Z,91.80
2018-12-09T18:54:12.093Z,92.30
2018-12-09T18:56:41.084Z,94.40
2018-12-09T18:59:10.007Z,94.70
2018-12-09T19:01:39.038Z,96.50
2018-12-09T19:04:10.055Z,97.90
2018-12-09T19:06:39.162Z,96.40
2018-12-09T19:09:08.107Z,96.10
2018-12-09T19:11:37.148Z,94.20
2018-12-09T19:14:06.982Z,91.90
2018-12-09T19:16:36.082Z,90.10
2018-12-09T19:19:05.042Z,89.60
2018-12-09T19:21:34.034Z,88.20
2018-12-09T19:24:02.960Z,87.00
2018-12-09T19:26:32.008Z,85.60
2018-12-09T19:29:00.960Z,83.80
2018-12-09T19:31:30.016Z,80.50
2018-12-09T19:33:59.050Z,83.90
2018-12-09T19:36:29.935Z,83.20
2018-12-09T19:38:58.856Z,85.00
2018-12-09T19:41:27.866Z,85.30
2018-12-09T19:43:56.802Z,87.10
2018-12-09T19:46:25.816Z,87.20
2018-12-09T19:48:54.751Z,89.00
2018-12-09T19:51:23.741Z,87.00
2018-12-09T19:53:52.671Z,87.60
2018-12-09T19:56:23.854Z,86.30
2018-12-09T19:58:52.811Z,86.40
2018-12-09T20:01:21.822Z,85.60
2018-12-09T20:03:51.047Z,85.70
2018-12-09T20:06:20.017Z,84.90
2018-12-09T20:08:49.010Z,84.80
2018-12-09T20:11:18.177Z,85.90
2018-12-09T20:13:48.041Z,84.70
2018-12-09T20:16:17.028Z,86.50
2018-12-09T20:18:45.959Z,87.00
2018-12-09T20:21:15.028Z,85.80
2018-12-09T20:23:43.992Z,85.10
2018-12-09T20:26:12.983Z,85.70
2018-12-09T20:28:41.975Z,80.50
2018-12-09T20:31:10.936Z,78.40
2018-12-09T20:33:39.865Z,77.60
2018-12-09T20:36:08.866Z,77.20
2018-12-09T20:38:37.872Z,76.10
2018-12-09T20:41:06.905Z,76.50
2018-12-09T20:43:35.837Z,76.60
2018-12-09T20:46:04.982Z,77.60
2018-12-09T20:48:33.914Z,78.00
2018-12-09T20:51:02.909Z,79.30
2018-12-09T20:53:31.825Z,80.90
2018-12-09T20:56:00.834Z,82.30
2018-12-09T20:58:29.831Z,83.70
2018-12-09T21:00:58.829Z,84.90
2018-12-09T21:03:27.779Z,81.00
2018-12-09T21:05:56.784Z,82.30
2018-12-09T21:08:25.734Z,82.80
2018-12-09T21:10:54.695Z,81.80
2018-12-09T21:13:23.622Z,80.10
2018-12-09T21:15:52.599Z,79.40
2018-12-09T21:18:21.526Z,79.10
2018-12-09T21:20:50.492Z,78.30
2018-12-09T21:23:19.420Z,76.00
2018-12-09T21:25:48.360Z,76.20
2018-12-09T21:28:17.278Z,76.20
2018-12-09T21:30:46.332Z,75.70
2018-12-09T21:33:15.269Z,75.10
2018-12-09T21:35:45.045Z,74.10
2018-12-09T21:38:14.026Z,72.60
2018-12-09T21:40:42.947Z,71.00
2018-12-09T21:43:11.899Z,69.40
2018-12-09T21:45:40.833Z,69.40
2018-12-09T21:48:09.822Z,70.30
2018-12-09T21:50:38.826Z,69.60
2018-12-09T21:53:07.765Z,68.30
2018-12-09T21:55:36.698Z,67.40
2018-12-09T21:58:05.670Z,67.10
2018-12-09T22:00:34.627Z,66.90
2018-12-09T22:03:03.562Z,67.10
2018-12-09T22:05:32.493Z,67.80
2018-12-09T22:08:01.428Z,67.90
2018-12-09T22:10:30.453Z,67.40
2018-12-09T22:12:59.409Z,66.60
2018-12-09T22:15:28.390Z,66.10
2018-12-09T22:17:57.336Z,66.00
2018-12-09T22:20:26.338Z,66.00
2018-12-09T22:22:55.266Z,66.20
2018-12-09T22:25:24.250Z,66.20
2018-12-09T22:27:53.199Z,67.70
2018-12-09T22:30:22.191Z,68.00
2018-12-09T22:32:51.201Z,68.00
2018-12-09T22:35:20.152Z,68.20
2018-12-09T22:37:49.089Z,68.70
2018-12-09T22:40:18.061Z,69.20
2018-12-09T22:42:46.996Z,69.00
2018-12-09T22:45:16.065Z,69.50
2018-12-09T22:47:45.028Z,69.20
2018-12-09T22:50:13.965Z,69.70
2018-12-09T22:52:42.929Z,69.50
2018-12-09T22:55:11.952Z,70.80
2018-12-09T22:57:40.947Z,71.30
2018-12-09T23:02:58.513Z,73.70
2018-12-09T23:05:27.482Z,74.70
2018-12-09T23:07:56.505Z,75.70
2018-12-09T23:10:25.453Z,76.40
2018-12-09T23:12:54.386Z,77.10
2018-12-09T23:15:23.363Z,76.00
2018-12-09T23:17:52.318Z,75.50
2018-12-09T23:20:21.695Z,76.00
2018-12-09T23:22:50.777Z,76.10
2018-12-09T23:25:19.746Z,77.10
2018-12-09T23:27:48.754Z,75.80
2018-12-09T23:30:17.803Z,76.20
2018-12-09T23:32:46.762Z,76.40
2018-12-09T23:35:15.683Z,76.40
2018-12-09T23:37:44.634Z,78.40
2018-12-09T23:40:13.669Z,78.70
2018-12-09T23:42:42.627Z,78.50
2018-12-09T23:45:11.646Z,79.20
2018-12-09T23:47:40.605Z,80.00
2018-12-09T23:50:09.598Z,79.80
2018-12-09T23:52:38.573Z,80.20
2018-12-09T23:55:07.649Z,80.40
2018-12-09T23:57:36.580Z,82.10
